createdAt,value
2022-09-15T00:02:12.970Z,100147.94
2022-09-15T00:04:44.807Z,100151.41
2022-09-15T00:07:16.707Z,100157.09
2022-09-15T00:09:48.736Z,100161.97
2022-09-15T00:12:20.661Z,100170.63
2022-09-15T00:14:52.934Z,100175.53
2022-09-15T00:17:24.693Z,100173.03
2022-09-15T00:19:58.379Z,100176.00
2022-09-15T00:22:30.574Z,100182.28
2022-09-15T00:25:02.612Z,100177.75
2022-09-15T00:27:34.577Z,100184.66
2022-09-15T00:30:07.755Z,100179.31
2022-09-15T00:32:39.632Z,100185.94
2022-09-15T00:35:12.110Z,100185.44
2022-09-15T00:37:44.230Z,100175.94
2022-09-15T00:40:17.082Z,100171.66
2022-09-15T00:42:49.060Z,100173.31
2022-09-15T00:45:21.075Z,100176.63
2022-09-15T00:47:53.028Z,100179.59
2022-09-15T00:50:24.968Z,100186.88
2022-09-15T00:52:58.755Z,100172.38
2022-09-15T00:55:34.391Z,100174.50
2022-09-15T00:58:37.143Z,100178.06
2022-09-15T01:01:09.160Z,100174.28
2022-09-15T01:03:41.497Z,100162.03
2022-09-15T01:06:20.426Z,100163.47
2022-09-15T01:09:17.353Z,100166.19
2022-09-15T01:11:49.453Z,100161.19
2022-09-15T01:14:21.622Z,100163.34
2022-09-15T01:17:04.084Z,100166.66
2022-09-15T01:19:56.274Z,100159.06
2022-09-15T01:22:36.344Z,100164.03
2022-09-15T01:25:09.964Z,100166.28
2022-09-15T01:28:24.261Z,100173.41
2022-09-15T01:31:21.348Z,100166.84
2022-09-15T01:34:14.802Z,100174.72
2022-09-15T01:36:54.981Z,100171.16
2022-09-15T01:39:36.472Z,100175.56
2022-09-15T01:42:11.791Z,100158.03
2022-09-15T01:45:06.897Z,100163.16
2022-09-15T01:47:39.941Z,100169.91
2022-09-15T01:50:31.462Z,100170.63
2022-09-15T01:53:08.806Z,100170.53
2022-09-15T01:55:44.508Z,100169.97
2022-09-15T01:58:16.582Z,100168.19
2022-09-15T02:00:59.506Z,100174.72
2022-09-15T02:03:37.870Z,100168.69
2022-09-15T02:06:36.079Z,100167.59
2022-09-15T02:09:35.810Z,100164.84
2022-09-15T02:12:12.374Z,100168.69
2022-09-15T02:14:55.537Z,100164.03
2022-09-15T02:17:29.477Z,100153.94
2022-09-15T02:20:20.178Z,100161.56
2022-09-15T02:22:57.231Z,100166.41
2022-09-15T02:25:32.760Z,100169.00
2022-09-15T02:28:07.497Z,100169.50
2022-09-15T02:30:42.007Z,100176.00
2022-09-15T02:33:19.774Z,100181.69
2022-09-15T02:35:52.332Z,100193.69
2022-09-15T02:38:28.938Z,100197.00
2022-09-15T02:41:01.204Z,100197.47
2022-09-15T02:43:33.556Z,100188.59
2022-09-15T02:46:05.834Z,100191.56
2022-09-15T02:48:37.959Z,100187.03
2022-09-15T02:51:10.207Z,100188.56
2022-09-15T02:53:44.545Z,100194.94
2022-09-15T02:56:17.041Z,100194.13
2022-09-15T02:58:48.933Z,100194.94
2022-09-15T03:01:21.119Z,100186.91
2022-09-15T03:03:53.302Z,100176.13
2022-09-15T03:06:25.597Z,100179.22
2022-09-15T03:08:58.806Z,100183.38
2022-09-15T03:11:31.064Z,100190.50
2022-09-15T03:14:05.956Z,100193.22
2022-09-15T03:16:38.049Z,100189.66
2022-09-15T03:19:10.197Z,100184.22
2022-09-15T03:21:42.093Z,100185.03
2022-09-15T03:24:15.449Z,100187.75
2022-09-15T03:26:48.126Z,100187.50
2022-09-15T03:29:20.027Z,100196.06
2022-09-15T03:31:52.791Z,100201.25
2022-09-15T03:34:24.799Z,100206.25
2022-09-15T03:36:56.776Z,100209.94
2022-09-15T03:39:28.693Z,100210.53
2022-09-15T03:42:00.891Z,100217.41
2022-09-15T03:44:32.962Z,100203.53
2022-09-15T03:47:07.944Z,100194.78
2022-09-15T03:49:39.969Z,100202.34
2022-09-15T03:52:12.242Z,100196.31
2022-09-15T03:54:44.401Z,100195.00
2022-09-15T03:57:16.388Z,100191.56
2022-09-15T03:59:48.399Z,100197.13
2022-09-15T04:02:20.317Z,100196.66
2022-09-15T04:04:52.296Z,100194.19
2022-09-15T04:07:25.014Z,100190.84
2022-09-15T04:09:59.513Z,100185.88
2022-09-15T04:12:32.491Z,100185.28
2022-09-15T04:15:04.897Z,100188.84
2022-09-15T04:17:36.874Z,100180.66
2022-09-15T04:20:09.891Z,100169.75
2022-09-15T04:22:41.872Z,100168.06
2022-09-15T04:25:14.103Z,100181.72
2022-09-15T04:27:46.270Z,100175.44
2022-09-15T04:30:18.108Z,100178.41
2022-09-15T04:32:51.650Z,100180.31
2022-09-15T04:35:23.905Z,100179.25
2022-09-15T04:37:56.339Z,100177.81
2022-09-15T04:40:28.371Z,100174.84
2022-09-15T04:43:00.431Z,100177.34
2022-09-15T04:45:33.703Z,100170.34
2022-09-15T04:48:05.800Z,100169.28
2022-09-15T04:50:40.542Z,100172.59
2022-09-15T04:53:12.651Z,100169.50
2022-09-15T04:55:44.754Z,100168.69
2022-09-15T04:58:16.809Z,100176.03
2022-09-15T05:00:48.910Z,100159.44
2022-09-15T05:03:20.864Z,100172.59
2022-09-15T05:05:52.728Z,100176.16
2022-09-15T05:08:24.620Z,100177.81
2022-09-15T05:11:03.354Z,100178.66
2022-09-15T05:13:36.172Z,100171.53
2022-09-15T05:16:13.187Z,100168.81
2022-09-15T05:18:46.835Z,100165.47
2022-09-15T05:21:21.517Z,100164.91
2022-09-15T05:23:59.022Z,100169.03
2022-09-15T05:26:30.923Z,100168.81
2022-09-15T05:29:03.077Z,100169.63
2022-09-15T05:31:35.152Z,100170.34
2022-09-15T05:34:07.220Z,100172.47
2022-09-15T05:36:39.147Z,100167.50
2022-09-15T05:39:11.145Z,100176.13
2022-09-15T05:41:43.050Z,100178.88
2022-09-15T05:44:15.101Z,100173.41
2022-09-15T05:46:48.129Z,100166.91
2022-09-15T05:49:20.045Z,100157.66
2022-09-15T05:51:52.239Z,100170.81
2022-09-15T05:54:24.486Z,100176.03
2022-09-15T05:56:56.547Z,100176.88
2022-09-15T05:59:28.675Z,100183.59
2022-09-15T06:02:00.787Z,100182.19
2022-09-15T06:04:34.135Z,100184.31
2022-09-15T06:07:05.984Z,100193.94
2022-09-15T06:09:38.388Z,100190.97
2022-09-15T06:12:10.371Z,100185.53
2022-09-15T06:14:44.509Z,100179.25
2022-09-15T06:17:20.062Z,100175.06
2022-09-15T06:19:52.060Z,100170.94
2022-09-15T06:22:24.295Z,100186.47
2022-09-15T06:24:56.229Z,100190.88
2022-09-15T06:27:28.140Z,100194.78
2022-09-15T06:30:00.075Z,100188.84
2022-09-15T06:32:32.048Z,100195.25
2022-09-15T06:35:07.171Z,100185.75
2022-09-15T06:37:39.015Z,100191.09
2022-09-15T06:40:11.505Z,100200.22
2022-09-15T06:42:43.791Z,100203.66
2022-09-15T06:45:16.480Z,100218.25
2022-09-15T06:48:02.077Z,100201.63
2022-09-15T06:50:40.187Z,100202.47
2022-09-15T06:53:12.027Z,100208.25
2022-09-15T06:55:44.065Z,100206.13
2022-09-15T06:58:15.948Z,100211.97
2022-09-15T07:00:47.989Z,100225.72
2022-09-15T07:03:20.042Z,100215.66
2022-09-15T07:05:52.087Z,100216.25
2022-09-15T07:08:24.154Z,100218.25
2022-09-15T07:10:56.454Z,100222.75
2022-09-15T07:13:28.718Z,100225.34
2022-09-15T07:16:03.721Z,100216.81
2022-09-15T07:18:40.938Z,100215.50
2022-09-15T07:21:20.398Z,100218.25
2022-09-15T07:23:52.935Z,100224.03
2022-09-15T07:26:28.283Z,100218.78
2022-09-15T07:29:06.282Z,100222.56
2022-09-15T07:31:39.156Z,100227.88
2022-09-15T07:34:11.175Z,100232.97
2022-09-15T07:36:43.008Z,100233.06
2022-09-15T07:39:14.829Z,100233.66
2022-09-15T07:41:46.837Z,100237.81
2022-09-15T07:44:18.766Z,100234.47
2022-09-15T07:46:50.743Z,100230.81
2022-09-15T07:49:22.694Z,100236.44
2022-09-15T07:51:54.585Z,100238.69
2022-09-15T07:54:26.461Z,100242.66
2022-09-15T07:56:58.349Z,100239.81
2022-09-15T07:59:30.978Z,100240.66
2022-09-15T08:02:02.930Z,100242.75
2022-09-15T08:04:34.963Z,100241.09
2022-09-15T08:07:06.825Z,100249.59
2022-09-15T08:09:39.954Z,100244.38
2022-09-15T08:12:12.278Z,100254.31
2022-09-15T08:14:44.242Z,100249.91
2022-09-15T08:17:16.134Z,100248.34
2022-09-15T08:19:47.968Z,100239.91
2022-09-15T08:22:19.885Z,100249.63
2022-09-15T08:24:52.002Z,100244.25
2022-09-15T08:27:23.943Z,100253.03
2022-09-15T08:29:55.806Z,100255.53
2022-09-15T08:32:27.676Z,100250.16
2022-09-15T08:34:59.507Z,100250.47
2022-09-15T08:37:31.467Z,100257.69
2022-09-15T08:40:03.632Z,100265.41
2022-09-15T08:42:35.733Z,100261.69
2022-09-15T08:45:20.783Z,100259.03
2022-09-15T08:47:58.596Z,100256.88
2022-09-15T08:50:42.081Z,100256.47
2022-09-15T08:53:36.034Z,100266.97
2022-09-15T08:56:17.171Z,100252.81
2022-09-15T08:58:49.080Z,100254.56
2022-09-15T09:01:37.836Z,100254.81
2022-09-15T09:04:31.398Z,100258.44
2022-09-15T09:07:17.898Z,100262.84
2022-09-15T09:09:57.400Z,100255.53
2022-09-15T09:12:47.184Z,100258.72
2022-09-15T09:15:47.557Z,100254.22
2022-09-15T09:18:53.146Z,100255.16
2022-09-15T09:21:31.880Z,100254.81
2022-09-15T09:24:13.104Z,100242.03
2022-09-15T09:26:49.562Z,100254.50
2022-09-15T09:29:33.466Z,100261.69
2022-09-15T09:32:17.662Z,100262.00
2022-09-15T09:34:56.133Z,100259.34
2022-09-15T09:37:28.302Z,100248.44
2022-09-15T09:40:00.658Z,100253.16
2022-09-15T09:42:37.036Z,100265.22
2022-09-15T09:45:12.796Z,100289.75
2022-09-15T09:47:46.198Z,100279.75
2022-09-15T09:50:43.076Z,100294.31
2022-09-15T09:53:26.246Z,100296.31
2022-09-15T09:56:22.710Z,100290.44
2022-09-15T09:58:54.699Z,100289.06
2022-09-15T10:01:26.673Z,100281.59
2022-09-15T10:04:19.160Z,100281.25
2022-09-15T10:06:51.065Z,100284.00
2022-09-15T10:09:23.026Z,100283.91
2022-09-15T10:11:59.054Z,100275.16
2022-09-15T10:14:41.577Z,100272.81
2022-09-15T10:17:18.703Z,100273.28
2022-09-15T10:19:52.763Z,100272.13
2022-09-15T10:22:30.183Z,100268.31
2022-09-15T10:25:12.087Z,100276.72
2022-09-15T10:27:43.982Z,100261.00
2022-09-15T10:30:19.076Z,100256.34
2022-09-15T10:32:51.439Z,100265.84
2022-09-15T10:35:23.212Z,100261.06
2022-09-15T10:38:12.811Z,100259.72
2022-09-15T10:41:01.184Z,100262.78
2022-09-15T10:43:50.741Z,100255.63
2022-09-15T10:46:27.350Z,100260.88
2022-09-15T10:49:22.090Z,100258.38
2022-09-15T10:52:16.033Z,100252.91
2022-09-15T10:55:02.911Z,100247.09
2022-09-15T10:58:00.675Z,100246.53
2022-09-15T11:00:43.801Z,100250.31
2022-09-15T11:03:30.949Z,100243.47
2022-09-15T11:06:26.613Z,100248.78
2022-09-15T11:09:13.375Z,100252.91
2022-09-15T11:12:17.319Z,100257.38
2022-09-15T11:15:15.191Z,100254.81
2022-09-15T11:18:10.406Z,100260.56
2022-09-15T11:21:19.430Z,100257.38
2022-09-15T11:24:31.685Z,100255.38
2022-09-15T11:27:12.662Z,100270.13
2022-09-15T11:30:02.739Z,100266.84
2022-09-15T11:32:59.184Z,100264.00
2022-09-15T11:35:49.161Z,100279.44
2022-09-15T11:38:27.085Z,100285.41
2022-09-15T11:41:24.982Z,100285.06
2022-09-15T11:44:16.076Z,100294.59
2022-09-15T11:47:02.235Z,100287.94
2022-09-15T11:49:40.017Z,100284.41
2022-09-15T11:52:24.462Z,100279.19
2022-09-15T11:55:12.942Z,100268.88
2022-09-15T11:57:48.947Z,100275.84
2022-09-15T12:00:21.150Z,100268.53
2022-09-15T12:03:17.838Z,100261.00
2022-09-15T12:05:54.673Z,100261.88
2022-09-15T12:08:33.920Z,100266.63
2022-09-15T12:11:12.903Z,100271.81
2022-09-15T12:13:45.560Z,100271.31
2022-09-15T12:16:17.645Z,100262.31
2022-09-15T12:18:54.823Z,100273.69
2022-09-15T12:21:55.587Z,100271.78
2022-09-15T12:24:39.398Z,100274.59
2022-09-15T12:27:16.635Z,100269.22
2022-09-15T12:29:56.454Z,100269.25
2022-09-15T12:32:35.061Z,100266.22
2022-09-15T12:35:16.411Z,100265.34
2022-09-15T12:37:56.126Z,100270.84
2022-09-15T12:40:33.047Z,100264.56
2022-09-15T12:43:10.931Z,100273.66
2022-09-15T12:45:52.641Z,100259.88
2022-09-15T12:48:28.172Z,100266.75
2022-09-15T12:51:02.358Z,100255.16
2022-09-15T12:53:37.886Z,100267.38
2022-09-15T12:56:22.013Z,100267.06
2022-09-15T12:58:54.756Z,100261.03
2022-09-15T13:01:26.455Z,100263.94
2022-09-15T13:03:58.913Z,100249.84
2022-09-15T13:06:35.704Z,100258.69
2022-09-15T13:09:26.618Z,100255.59
2022-09-15T13:11:59.595Z,100254.59
2022-09-15T13:14:38.296Z,100258.19
2022-09-15T13:17:16.642Z,100265.00
2022-09-15T13:19:51.649Z,100279.38
2022-09-15T13:22:30.240Z,100270.66
2022-09-15T13:25:14.688Z,100291.78
2022-09-15T13:27:54.375Z,100292.06
2022-09-15T13:30:36.003Z,100315.66
2022-09-15T13:40:16.679Z,100330.56
2022-09-15T13:43:07.210Z,100322.09
2022-09-15T13:46:15.278Z,100315.56
2022-09-15T13:48:55.356Z,100313.69
2022-09-15T13:51:28.950Z,100305.47
2022-09-15T13:54:06.570Z,100304.53
2022-09-15T13:56:39.575Z,100303.69
2022-09-15T13:59:17.425Z,100304.16
2022-09-15T14:01:50.437Z,100294.66
2022-09-15T14:04:24.448Z,100296.97
2022-09-15T14:07:00.973Z,100299.00
2022-09-15T14:09:41.934Z,100297.16
2022-09-15T14:12:15.153Z,100298.09
2022-09-15T14:14:51.496Z,100295.56
2022-09-15T14:17:26.045Z,100290.34
2022-09-15T14:20:00.171Z,100284.84
2022-09-15T14:22:33.975Z,100294.09
2022-09-15T14:25:08.716Z,100293.22
2022-09-15T14:27:44.847Z,100303.00
2022-09-15T14:30:25.576Z,100302.19
2022-09-15T14:33:01.369Z,100293.91
2022-09-15T14:35:36.253Z,100307.13
2022-09-15T14:38:21.654Z,100300.84
2022-09-15T14:40:56.822Z,100301.13
2022-09-15T14:43:39.455Z,100294.22
2022-09-15T14:46:12.043Z,100293.41
2022-09-15T14:48:46.944Z,100304.91
2022-09-15T14:51:21.880Z,100315.81
2022-09-15T14:53:55.849Z,100323.16
2022-09-15T14:56:32.641Z,100322.25
2022-09-15T14:59:07.981Z,100323.19
2022-09-15T15:01:43.023Z,100340.06
2022-09-15T15:04:39.198Z,100334.34
2022-09-15T15:07:22.697Z,100320.53
2022-09-15T15:10:02.516Z,100314.31
2022-09-15T15:12:42.412Z,100314.13
2022-09-15T15:15:16.293Z,100306.22
2022-09-15T15:17:50.992Z,100313.63
2022-09-15T15:20:26.979Z,100309.69
2022-09-15T15:23:22.533Z,100312.59
2022-09-15T15:26:24.562Z,100296.91
2022-09-15T15:28:56.858Z,100303.47
2022-09-15T15:31:29.530Z,100305.28
2022-09-15T15:34:06.695Z,100313.13
2022-09-15T15:36:38.560Z,100308.06
2022-09-15T15:39:24.848Z,100306.56
2022-09-15T15:42:05.139Z,100312.78
2022-09-15T15:44:37.026Z,100318.41
2022-09-15T15:47:31.031Z,100312.13
2022-09-15T15:50:14.810Z,100314.69
2022-09-15T15:52:48.663Z,100309.94
2022-09-15T15:55:26.733Z,100309.00
2022-09-15T15:57:59.020Z,100310.06
2022-09-15T16:00:44.161Z,100306.66
2022-09-15T16:03:17.174Z,100301.84
2022-09-15T16:05:52.228Z,100308.22
2022-09-15T16:08:28.337Z,100304.78
2022-09-15T16:11:02.146Z,100302.72
2022-09-15T16:13:34.495Z,100297.66
2022-09-15T16:16:20.453Z,100301.88
2022-09-15T16:18:53.021Z,100306.06
2022-09-15T16:21:36.699Z,100309.53
2022-09-15T16:24:15.581Z,100296.25
2022-09-15T16:26:50.626Z,100295.09
2022-09-15T16:29:29.887Z,100290.47
2022-09-15T16:32:03.172Z,100299.22
2022-09-15T16:34:35.174Z,100303.03
2022-09-15T16:37:08.585Z,100297.56
2022-09-15T16:39:52.094Z,100292.09
2022-09-15T16:42:24.300Z,100290.78
2022-09-15T16:44:56.566Z,100286.16
2022-09-15T16:47:28.458Z,100298.75
2022-09-15T16:50:00.352Z,100294.91
2022-09-15T16:52:32.375Z,100281.34
2022-09-15T16:55:20.346Z,100295.03
2022-09-15T16:57:52.330Z,100304.41
2022-09-15T17:00:24.418Z,100306.06
2022-09-15T17:02:57.301Z,100317.34
2022-09-15T17:05:39.079Z,100318.97
2022-09-15T17:08:12.251Z,100309.25
2022-09-15T17:10:44.506Z,100314.22
2022-09-15T17:13:23.961Z,100312.81
2022-09-15T17:16:00.232Z,100312.81
2022-09-15T17:18:32.420Z,100318.19
2022-09-15T17:21:04.970Z,100318.09
2022-09-15T17:23:38.771Z,100323.47
2022-09-15T17:26:13.863Z,100319.28
2022-09-15T17:28:45.846Z,100317.91
2022-09-15T17:31:20.897Z,100315.41
2022-09-15T17:33:53.155Z,100310.16
2022-09-15T17:36:25.321Z,100312.56
2022-09-15T17:38:57.573Z,100312.78
2022-09-15T17:41:30.536Z,100308.06
2022-09-15T17:44:02.768Z,100319.19
2022-09-15T17:46:35.097Z,100308.53
2022-09-15T17:49:07.034Z,100319.69
2022-09-15T17:51:39.325Z,100315.06
2022-09-15T17:54:11.548Z,100316.38
2022-09-15T17:56:43.761Z,100316.84
2022-09-15T17:59:16.345Z,100323.88
2022-09-15T18:01:48.729Z,100321.38
2022-09-15T18:04:20.713Z,100323.78
2022-09-15T18:06:54.004Z,100328.41
2022-09-15T18:09:26.054Z,100322.13
2022-09-15T18:11:58.234Z,100330.19
2022-09-15T18:14:31.217Z,100329.03
2022-09-15T18:17:03.170Z,100332.81
2022-09-15T18:19:35.335Z,100331.16
2022-09-15T18:22:07.546Z,100328.91
2022-09-15T18:24:39.746Z,100329.16
2022-09-15T18:27:11.859Z,100334.28
2022-09-15T18:29:44.257Z,100331.53
2022-09-15T18:32:16.387Z,100326.22
2022-09-15T18:34:49.082Z,100331.47
2022-09-15T18:37:21.367Z,100330.75
2022-09-15T18:39:53.384Z,100329.34
2022-09-15T18:42:28.450Z,100335.03
2022-09-15T18:45:09.348Z,100333.84
2022-09-15T18:47:42.562Z,100332.06
2022-09-15T18:50:15.609Z,100332.75
2022-09-15T18:52:47.918Z,100327.53
2022-09-15T18:55:22.064Z,100326.97
2022-09-15T18:57:53.963Z,100331.81
2022-09-15T19:00:28.678Z,100322.19
2022-09-15T19:03:02.550Z,100334.53
2022-09-15T19:05:34.453Z,100330.75
2022-09-15T19:08:08.499Z,100337.88
2022-09-15T19:10:43.846Z,100357.09
2022-09-15T19:13:16.030Z,100356.38
2022-09-15T19:15:50.302Z,100358.88
2022-09-15T19:18:24.837Z,100357.50
2022-09-15T19:21:04.987Z,100359.47
2022-09-15T19:23:37.033Z,100358.59
2022-09-15T19:26:13.651Z,100365.31
2022-09-15T19:28:46.215Z,100360.06
2022-09-15T19:31:18.330Z,100363.75
2022-09-15T19:33:50.196Z,100367.25
2022-09-15T19:36:29.531Z,100358.09
2022-09-15T19:39:03.384Z,100364.84
2022-09-15T19:41:35.523Z,100369.84
2022-09-15T19:44:10.590Z,100368.31
2022-09-15T19:46:43.060Z,100374.16
2022-09-15T19:49:15.006Z,100371.78
2022-09-15T19:51:52.881Z,100371.78
2022-09-15T19:54:29.088Z,100383.75
2022-09-15T19:57:01.918Z,100382.06
2022-09-15T19:59:34.007Z,100376.63
2022-09-15T20:02:06.055Z,100382.53
2022-09-15T20:04:39.016Z,100379.19
2022-09-15T20:07:11.070Z,100374.22
2022-09-15T20:09:43.101Z,100388.13
2022-09-15T20:12:15.183Z,100380.25
2022-09-15T20:14:47.163Z,100398.72
2022-09-15T20:17:19.256Z,100383.06
2022-09-15T20:19:51.315Z,100388.72
2022-09-15T20:22:23.660Z,100387.66
2022-09-15T20:24:56.130Z,100383.13
2022-09-15T20:27:28.135Z,100381.31
2022-09-15T20:30:00.039Z,100396.44
2022-09-15T20:32:33.960Z,100392.72
2022-09-15T20:35:06.076Z,100384.00
2022-09-15T20:37:37.987Z,100389.88
2022-09-15T20:40:10.027Z,100383.22
2022-09-15T20:42:42.538Z,100389.34
2022-09-15T20:45:15.346Z,100389.19
2022-09-15T20:47:47.304Z,100387.34
2022-09-15T20:50:19.276Z,100381.31
2022-09-15T20:52:51.145Z,100386.78
2022-09-15T20:55:25.506Z,100391.03
2022-09-15T20:57:57.399Z,100390.22
2022-09-15T21:00:33.211Z,100390.69
2022-09-15T21:03:05.934Z,100382.75
2022-09-15T21:05:37.859Z,100394.06
2022-09-15T21:08:11.049Z,100394.28
2022-09-15T21:10:44.788Z,100401.22
2022-09-15T21:13:16.599Z,100401.84
2022-09-15T21:15:59.520Z,100417.09
2022-09-15T21:18:35.635Z,100422.31
2022-09-15T21:21:07.827Z,100417.25
2022-09-15T21:23:42.031Z,100426.66
2022-09-15T21:26:16.144Z,100427.94
2022-09-15T21:28:48.726Z,100410.88
2022-09-15T21:31:26.251Z,100404.22
2022-09-15T21:33:58.759Z,100407.88
2022-09-15T21:36:31.668Z,100404.13
2022-09-15T21:39:03.568Z,100399.38
2022-09-15T21:41:35.931Z,100395.22
2022-09-15T21:44:09.358Z,100403.19
2022-09-15T21:46:41.181Z,100396.91
2022-09-15T21:49:13.146Z,100394.63
2022-09-15T21:51:45.328Z,100389.00
2022-09-15T21:54:18.403Z,100394.19
2022-09-15T21:56:50.610Z,100393.16
2022-09-15T21:59:22.498Z,100388.53
2022-09-15T22:01:54.414Z,100391.91
2022-09-15T22:04:26.319Z,100396.03
2022-09-15T22:06:58.185Z,100396.03
2022-09-15T22:09:30.202Z,100396.47
2022-09-15T22:12:02.162Z,100395.19
2022-09-15T22:14:34.045Z,100397.25
2022-09-15T22:17:05.997Z,100405.56
2022-09-15T22:19:38.062Z,100401.34
2022-09-15T22:22:10.025Z,100406.78
2022-09-15T22:24:41.943Z,100417.06
2022-09-15T22:27:13.799Z,100407.88
2022-09-15T22:29:45.669Z,100414.78
2022-09-15T22:32:17.581Z,100407.06
2022-09-15T22:34:49.528Z,100411.47
2022-09-15T22:37:21.421Z,100419.78
2022-09-15T22:40:01.348Z,100428.13
2022-09-15T22:42:33.323Z,100419.16
2022-09-15T22:45:07.430Z,100413.31
2022-09-15T22:47:39.588Z,100410.59
2022-09-15T22:50:12.010Z,100405.56
2022-09-15T22:52:44.047Z,100409.56
2022-09-15T22:55:16.500Z,100401.25
2022-09-15T22:57:48.936Z,100402.50
2022-09-15T23:00:21.087Z,100396.66
2022-09-15T23:02:53.058Z,100401.09
2022-09-15T23:05:25.404Z,100404.84
2022-09-15T23:07:57.404Z,100396.50
2022-09-15T23:10:30.558Z,100399.47
2022-09-15T23:13:02.395Z,100393.78
2022-09-15T23:15:34.417Z,100406.53
2022-09-15T23:18:06.383Z,100398.19
2022-09-15T23:20:39.775Z,100411.16
2022-09-15T23:23:11.734Z,100399.84
2022-09-15T23:25:43.633Z,100394.44
2022-09-15T23:28:15.476Z,100394.44
2022-09-15T23:30:54.498Z,100400.28
2022-09-15T23:33:28.847Z,100389.66
2022-09-15T23:36:05.552Z,100405.13
2022-09-15T23:38:41.683Z,100396.97
2022-09-15T23:41:15.166Z,100396.97
2022-09-15T23:43:47.354Z,100398.00
2022-09-15T23:46:19.233Z,100383.19
2022-09-15T23:48:51.209Z,100396.97
2022-09-15T23:51:23.336Z,100390.13
2022-09-15T23:53:55.286Z,100393.69
2022-09-15T23:56:27.324Z,100399.97
2022-09-15T23:58:59.371Z,100383.66
